Date,TemperatureHighF,TemperatureAvgF,TemperatureLowF,DewpointHighF,DewpointAvgF,DewpointLowF,HumidityHigh,HumidityAvg,HumidityLow,PressureMaxIn,PressureMinIn,WindSpeedMaxMPH,WindSpeedAvgMPH,GustSpeedMaxMPH,PrecipitationSumIn
2013-1-1,40,37,28,28,23,11,64,57,43,29.98,29.80,11,4,18,0.03
2013-1-2,34,28,24,15,11,9,54,48,38,30.15,29.97,13,4,18,0.01
2013-1-3,34,30,25,17,15,12,66,53,41,30.17,30.04,10,2,13,0.00
2013-1-4,39,35,31,22,20,18,61,54,44,30.06,29.93,17,4,18,0.00
2013-1-5,44,37,32,22,19,16,56,49,38,30.24,29.98,14,3,17,0.00
2013-1-6,47,40,34,32,26,22,85,60,42,30.18,29.93,9,3,13,0.00
2013-1-7,46,40,34,29,24,17,72,53,34,30.37,30.00,14,2,14,0.00
2013-1-8,41,34,32,29,25,22,73,69,58,30.36,30.32,4,1,8,0.00
2013-1-9,47,40,32,36,31,27,84,71,58,30.35,30.12,10,2,15,0.00
2013-1-10,49,44,40,32,24,21,58,45,34,30.53,30.19,11,4,17,0.00
2013-1-11,45,41,37,42,31,23,93,70,53,30.53,30.07,6,1,8,0.55
2013-1-12,47,45,42,45,43,40,94,92,89,30.15,30.04,5,1,9,0.51
2013-1-13,48,46,44,46,44,43,95,93,90,30.13,29.99,9,1,10,0.02
2013-1-14,56,50,41,53,42,28,95,76,45,30.26,29.88,10,3,13,0.10
2013-1-15,39,38,36,35,27,24,88,64,56,30.32,30.19,7,3,14,0.22
2013-1-16,37,34,32,34,32,29,93,90,74,30.20,29.78,9,2,14,0.66
2013-1-17,44,40,37,34,28,23,86,62,48,30.06,29.89,16,3,16,0.12
2013-1-18,36,30,27,24,9,0,61,43,27,30.43,29.98,11,5,17,0.01
2013-1-19,51,40,29,27,21,10,65,48,32,30.37,29.89,17,6,21,0.00
2013-1-20,55,43,31,29,21,8,69,44,20,30.00,29.65,16,6,25,0.00
2013-1-21,32,30,26,16,10,6,59,43,36,30.07,29.81,10,3,13,0.00
2013-1-22,28,21,14,14,0,-10,66,40,23,30.18,29.81,17,7,25,0.00
2013-1-23,20,16,12,0,-6,-10,51,38,27,30.23,30.14,13,5,17,0.00
2013-1-24,24,18,13,3,-2,-8,61,42,23,30.37,30.11,14,6,23,0.00
2013-1-25,24,18,14,15,4,-5,81,54,35,30.39,30.04,13,3,18,0.00
2013-1-26,28,21,16,13,7,3,79,56,35,30.35,30.02,14,5,18,0.02
2013-1-27,35,27,19,11,8,5,62,47,29,30.49,30.34,14,3,16,0.01
2013-1-28,36,32,26,33,25,12,91,77,51,30.44,29.98,8,3,11,0.14
2013-1-29,55,43,36,43,38,33,92,83,56,30.12,29.98,10,2,11,0.07
2013-1-30,60,47,40,56,45,38,95,92,86,30.07,29.35,10,1,17,0.10
2013-1-31,60,41,30,57,20,7,90,44,29,29.75,29.24,28,11,29,0.78
2013-2-1,32,28,24,15,9,1,63,45,27,30.20,29.75,15,6,23,0.01
2013-2-2,30,25,19,20,7,1,82,48,29,30.28,30.03,12,4,17,0.00
2013-2-3,31,27,24,21,19,15,86,72,54,30.03,29.78,8,2,11,0.01
2013-2-4,32,28,23,19,9,5,69,46,34,29.94,29.78,14,5,18,0.01
2013-2-5,31,29,27,27,24,10,86,79,47,29.94,29.86,8,2,10,0.01
2013-2-6,39,34,29,28,20,1,90,61,30,30.34,29.89,12,4,18,0.01
2013-2-7,32,29,25,21,9,3,64,42,32,30.47,30.30,6,2,10,0.01
2013-2-8,34,32,28,31,28,21,93,84,63,30.30,29.63,18,6,25,0.16
2013-2-9,33,28,22,27,17,6,93,64,35,30.30,29.72,17,7,23,0.07
2013-2-10,34,26,16,22,13,6,68,56,41,30.46,30.29,10,2,10,0.24
2013-2-11,42,37,31,41,33,21,95,87,65,30.30,29.63,5,0,9,0.33
2013-2-12,45,41,36,41,26,23,95,56,43,29.93,29.69,17,5,22,0.01
2013-2-13,43,37,30,32,25,21,88,62,43,29.93,29.66,8,1,10,0.02
2013-2-14,47,40,33,32,28,21,90,66,36,29.97,29.69,8,2,14,0.02
2013-2-15,56,44,35,37,32,25,82,64,37,29.98,29.87,10,3,17,0.00
2013-2-16,42,36,32,34,26,13,89,68,47,29.93,29.72,12,4,17,0.06
2013-2-17,33,28,18,13,3,-2,47,35,25,29.98,29.64,20,11,29,0.01
2013-2-18,36,27,17,10,3,-2,48,37,24,30.22,29.98,17,6,26,0.00
2013-2-19,49,39,28,43,28,9,90,66,38,30.18,29.64,17,4,20,0.23
2013-2-20,38,31,26,26,12,7,61,45,34,29.95,29.69,17,8,24,0.04
2013-2-21,35,29,25,12,10,7,57,46,37,30.23,29.95,20,9,29,0.00
2013-2-22,38,32,24,31,20,12,75,62,48,30.38,30.23,9,3,15,0.00
2013-2-23,42,38,37,40,36,31,94,91,75,30.24,29.78,13,3,16,0.34
2013-2-24,49,39,34,39,30,20,93,72,48,29.93,29.72,19,6,23,0.02
2013-2-25,45,39,31,27,24,20,73,56,44,30.20,29.92,10,3,15,0.00
2013-2-26,45,39,34,34,29,25,89,67,56,30.25,29.88,15,4,19,0.12
2013-2-27,47,42,37,45,38,34,97,86,69,29.87,29.48,19,5,24,1.15
2013-2-28,51,44,39,37,32,26,79,63,46,29.61,29.52,9,2,12,0.01
2013-3-1,46,40,36,30,27,24,75,61,44,29.75,29.58,13,6,19,0.00
2013-3-2,41,36,32,25,22,21,70,57,46,29.76,29.67,11,5,16,0.00
2013-3-3,40,33,29,22,17,14,67,51,38,29.74,29.63,15,7,17,0.00
2013-3-4,42,34,28,19,17,13,62,49,37,29.89,29.74,16,8,21,0.00
2013-3-5,49,40,31,29,22,18,63,51,37,29.98,29.89,11,4,17,0.00
2013-3-6,42,40,38,35,30,25,78,67,56,29.96,29.82,26,11,30,0.00
2013-3-7,39,37,33,34,29,25,92,75,57,30.07,29.89,17,7,23,0.24
2013-3-8,40,35,32,34,31,30,92,87,71,30.16,29.98,13,4,19,0.57
2013-3-9,54,43,32,30,23,15,75,50,22,30.27,30.16,10,4,14,0.55
2013-3-10,48,40,32,34,32,29,88,75,55,30.36,30.27,11,2,13,0.01
2013-3-11,52,45,39,45,40,34,90,83,70,30.30,30.07,11,3,13,0.00
2013-3-12,57,50,45,56,46,36,95,88,69,30.08,29.64,11,4,17,0.96
2013-3-13,50,44,39,36,28,19,76,56,29,29.87,29.77,11,4,20,0.96
2013-3-14,41,36,30,24,10,3,58,36,20,29.94,29.81,19,10,27,0.01
2013-3-15,47,39,30,29,17,4,56,42,28,29.95,29.66,13,6,17,0.00
2013-3-16,43,36,33,31,25,17,87,64,43,29.89,29.75,10,2,13,0.03
2013-3-17,39,34,29,29,17,10,83,51,33,30.28,29.89,14,5,17,0.01
2013-3-18,37,32,27,31,18,5,92,58,37,30.38,30.00,10,4,13,0.00
2013-3-19,44,38,33,37,33,27,96,83,63,30.01,29.68,15,5,18,1.01
2013-3-20,47,39,32,27,17,12,63,41,27,29.86,29.76,15,5,21,0.01
2013-3-21,40,35,32,28,15,6,80,45,28,29.80,29.61,16,5,16,0.00
2013-3-22,42,35,29,21,15,10,60,44,32,29.84,29.71,17,5,21,0.00
2013-3-23,47,39,33,22,17,14,56,42,28,29.90,29.78,21,7,24,0.00
2013-3-24,48,40,33,27,19,16,57,44,31,29.92,29.68,13,4,17,0.00
2013-3-25,40,39,36,35,29,22,88,70,49,29.70,29.44,17,4,23,0.11
2013-3-26,53,44,37,32,27,21,78,54,29,29.83,29.57,11,4,13,0.06
2013-3-27,53,44,36,29,24,17,58,45,25,29.93,29.82,17,6,19,0.00
2013-3-28,50,44,38,31,28,26,70,53,39,30.07,29.93,12,5,16,0.00
2013-3-29,55,47,39,29,26,21,63,46,27,30.12,30.01,14,4,18,0.00
2013-3-30,60,49,39,30,24,12,63,41,16,30.14,30.03,10,2,13,0.00
2013-3-31,54,46,38,44,32,-100,92,62,39,30.09,29.66,10,3,14,0.13
2013-4-1,64,50,39,45,36,9,93,65,29,29.88,29.58,16,5,24,0.14
2013-4-2,45,39,33,16,10,7,44,31,22,30.04,29.88,18,6,21,0.01
2013-4-3,47,40,33,13,9,6,41,28,19,30.27,30.04,16,6,22,0.00
2013-4-4,54,42,33,31,19,11,56,40,24,30.37,30.07,12,4,17,0.00
2013-4-5,64,50,41,29,22,14,59,38,15,30.07,29.69,17,5,20,0.00
2013-4-6,53,44,35,30,16,4,57,35,15,30.27,29.96,15,5,23,0.00
2013-4-7,58,48,40,43,34,25,69,58,35,30.27,29.97,14,5,20,0.00
2013-4-8,74,59,48,45,42,36,80,56,26,30.04,29.93,12,3,15,0.00
2013-4-9,83,68,53,50,42,32,80,46,16,29.97,29.88,11,3,21,0.00
2013-4-10,75,64,56,55,48,40,90,58,37,29.93,29.79,10,2,22,0.59
2013-4-11,61,56,49,58,49,39,95,79,62,30.01,29.75,11,4,18,0.61
2013-4-12,49,44,42,42,40,38,91,85,68,30.00,29.69,17,6,19,0.54
2013-4-13,59,49,40,40,36,31,91,63,36,29.94,29.71,9,3,16,0.06
2013-4-14,58,53,46,42,32,23,76,48,27,30.18,29.93,18,4,23,0.00
2013-4-15,56,50,45,41,30,24,76,47,31,30.35,30.18,10,3,13,0.00
2013-4-16,64,56,48,54,47,40,81,73,65,30.35,30.09,14,5,20,0.00
2013-4-17,72,63,56,55,42,27,78,51,20,30.27,30.08,10,3,13,0.00
2013-4-18,58,54,52,51,43,36,91,67,45,30.32,30.09,12,4,17,0.03
2013-4-19,73,62,53,63,57,51,95,84,67,30.09,29.62,17,4,19,0.07
2013-4-20,64,55,50,61,33,22,89,49,26,30.25,29.64,14,6,20,0.18
2013-4-21,54,46,37,31,21,14,56,38,22,30.58,30.24,14,4,17,0.01
2013-4-22,52,48,41,36,31,25,69,52,35,30.62,30.45,16,5,17,0.00
2013-4-23,52,46,41,40,36,31,87,68,59,30.45,30.09,10,5,14,0.00
2013-4-24,68,55,42,51,44,37,84,67,44,30.10,29.80,10,3,13,0.00
2013-4-25,66,57,47,52,31,19,79,40,16,30.24,29.83,16,6,22,0.00
2013-4-26,67,56,45,38,31,19,67,41,17,30.38,30.24,12,2,14,0.00
2013-4-27,72,58,46,32,28,24,50,33,17,30.40,30.27,9,3,13,0.00
2013-4-28,68,58,48,41,33,-100,58,41,24,30.29,30.18,14,3,17,0.00
2013-4-29,57,54,53,50,47,39,86,76,51,30.21,30.16,10,2,13,0.16
2013-4-30,66,57,51,49,37,22,90,54,22,30.32,30.18,10,3,17,0.01
2013-5-1,67,56,46,44,36,24,69,49,22,30.46,30.30,11,3,16,0.01
2013-5-2,70,58,46,46,42,39,85,57,34,30.45,30.31,10,2,12,0.00
2013-5-3,64,56,50,44,38,31,78,52,33,30.43,30.34,11,4,17,0.00
2013-5-4,67,54,46,45,41,36,86,64,33,30.35,30.24,11,3,16,0.00
2013-5-5,61,52,46,43,39,35,77,63,42,30.27,30.21,10,3,12,0.00
2013-5-6,66,56,47,49,46,41,81,70,54,30.24,30.15,9,2,12,0.00
2013-5-7,74,62,51,58,53,46,86,71,53,30.15,30.08,8,3,12,0.00
2013-5-8,66,61,57,61,57,51,94,86,74,30.09,29.96,10,3,12,1.53
2013-5-9,68,60,54,58,54,51,94,83,57,29.99,29.88,6,1,10,0.98
2013-5-10,81,66,55,57,52,-100,92,68,36,29.97,29.86,9,2,15,0.01
2013-5-11,73,66,63,63,61,56,92,85,67,29.87,29.66,10,3,18,0.45
2013-5-12,69,62,53,61,38,-100,91,47,20,29.90,29.62,18,6,23,0.01
2013-5-13,57,52,46,32,26,22,55,38,26,30.07,29.90,13,5,20,0.01
2013-5-14,63,53,42,33,25,17,65,38,17,30.09,29.98,12,4,15,0.00
2013-5-15,71,61,51,57,45,25,72,57,31,30.03,29.65,12,3,15,0.00
2013-5-16,82,66,60,57,30,-100,82,52,28,29.80,29.68,12,2,17,0.00
2013-5-17,74,66,59,42,34,-100,50,35,25,30.16,29.80,12,4,17,0.00
2013-5-18,65,60,57,54,48,41,82,66,46,30.28,30.16,5,1,9,0.01
2013-5-19,59,58,56,57,55,50,96,91,72,30.29,30.15,10,3,14,0.49
2013-5-20,80,69,58,65,61,57,96,79,55,30.15,29.94,10,2,11,0.03
2013-5-21,90,78,67,68,66,63,90,68,45,29.95,29.82,9,3,17,0.00
2013-5-22,79,72,61,68,64,57,88,77,67,29.90,29.80,8,2,10,0.00
2013-5-23,83,74,67,69,66,63,92,79,53,29.85,29.72,13,4,23,0.79
2013-5-24,67,57,46,64,53,41,92,86,71,29.93,29.65,16,5,17,0.87
2013-5-25,55,50,46,44,41,36,89,71,50,30.00,29.88,20,8,29,0.34
2013-5-26,69,58,48,38,34,29,64,42,23,30.17,29.93,17,7,26,0.01
2013-5-27,77,63,47,39,35,30,68,38,21,30.21,30.09,10,2,14,0.00
2013-5-28,69,60,56,57,49,39,94,69,37,30.19,30.10,5,1,10,0.62
2013-5-29,88,74,60,66,62,59,95,70,42,30.07,29.97,13,2,14,0.06
2013-5-30,94,84,73,66,62,58,78,51,31,30.09,30.04,8,3,12,0.00
2013-5-31,94,85,74,68,62,53,75,49,27,30.10,29.97,11,2,15,0.00
2013-6-1,93,83,73,68,64,59,78,54,34,30.00,29.88,17,4,17,0.00
2013-6-2,90,82,73,70,64,-100,85,59,37,29.90,29.76,11,4,23,0.45
2013-6-3,79,73,69,69,66,45,91,81,54,29.85,29.77,10,3,19,1.40
2013-6-4,77,68,57,46,41,37,58,40,27,30.09,29.85,14,4,17,0.07
2013-6-5,74,66,55,55,43,37,80,45,30,30.18,30.09,14,4,17,0.00
2013-6-6,70,64,59,59,56,48,89,76,45,30.12,29.99,10,4,16,0.14
2013-6-7,64,62,60,62,60,58,95,93,87,29.99,29.61,10,4,16,3.31
2013-6-8,77,68,57,62,59,55,95,75,56,30.02,29.55,12,4,17,1.25
2013-6-9,83,74,62,62,57,53,88,59,36,30.14,30.01,8,2,11,0.01
2013-6-10,71,68,64,65,63,60,94,84,71,30.13,29.81,14,2,17,0.97
2013-6-11,81,73,64,68,64,57,95,73,51,29.81,29.59,15,4,17,0.75
2013-6-12,80,72,66,59,53,50,71,52,37,29.82,29.68,17,6,19,0.01
2013-6-13,67,64,57,61,57,53,93,79,61,29.81,29.43,15,4,21,0.95
2013-6-14,73,62,54,57,53,49,93,74,48,29.85,29.49,12,4,19,0.86
2013-6-15,83,72,60,56,52,45,82,53,27,29.98,29.85,11,3,13,0.01
2013-6-16,84,74,63,64,56,47,72,54,31,29.96,29.75,17,3,19,0.00
2013-6-17,87,77,68,67,63,58,85,65,40,29.88,29.81,10,3,20,0.09
2013-6-18,85,72,64,68,63,60,91,75,47,29.87,29.79,10,2,13,0.31
2013-6-19,79,69,59,63,52,40,91,59,27,30.13,29.85,12,4,16,0.18
2013-6-20,80,70,61,57,53,50,75,57,36,30.23,30.13,10,2,13,0.00
2013-6-22,86,79,73,60,57,51,59,48,32,30.22,30.11,11,4,16,0.00
2013-6-23,91,79,69,72,65,59,83,64,42,30.16,30.04,10,3,13,0.02
2013-6-24,96,83,74,71,67,57,88,61,27,30.06,29.93,10,3,13,0.02
2013-6-25,94,82,72,69,66,61,77,59,37,29.98,29.80,21,4,21,0.01
2013-6-26,88,81,74,71,66,62,83,62,44,29.83,29.76,10,3,10,0.01
2013-6-27,88,79,74,73,69,66,92,73,48,29.80,29.53,16,3,19,0.43
2013-6-28,88,80,74,72,68,63,91,69,44,29.54,29.45,10,4,18,0.43
2013-6-29,86,78,71,71,66,62,84,68,44,29.67,29.46,11,3,14,0.00
2013-6-30,87,78,74,73,71,69,88,80,58,29.88,29.67,15,3,15,0.00
2013-7-1,77,75,73,73,71,69,93,88,83,30.02,29.87,8,2,10,1.26
2013-7-2,84,78,74,73,71,70,91,81,63,30.16,30.02,10,3,13,0.06
2013-7-3,87,79,74,75,71,68,88,78,58,30.22,30.15,8,3,10,0.07
2013-7-4,91,84,77,74,71,68,88,68,49,30.23,30.14,16,4,16,0.01
2013-7-5,93,85,76,72,70,66,87,62,43,30.19,30.08,10,3,11,0.00
2013-7-6,95,86,78,72,70,65,80,59,38,30.13,30.01,10,4,12,0.00
2013-7-7,96,88,80,72,69,64,76,55,38,30.04,29.92,10,4,15,0.00
2013-7-8,92,81,73,68,66,63,79,62,40,30.02,29.95,10,3,13,0.00
2013-7-9,92,83,75,70,66,63,75,58,41,30.04,29.96,12,3,12,0.01
2013-7-10,89,81,76,75,67,-100,82,66,50,30.00,29.79,15,4,15,0.05
2013-7-11,87,82,77,73,67,60,85,64,45,29.89,29.78,9,3,10,0.07
2013-7-12,78,74,69,69,64,60,90,70,58,30.06,29.89,11,4,15,0.11
2013-7-13,81,74,68,75,70,66,94,88,74,30.25,30.06,9,2,14,0.35
2013-7-14,93,84,75,74,71,65,93,68,40,30.30,30.22,10,2,14,0.02
2013-7-15,97,85,79,71,70,68,77,61,39,30.23,30.15,9,2,11,0.00
2013-7-16,94,88,77,67,64,60,69,46,32,30.17,30.11,13,3,14,0.00
2013-7-17,97,86,78,70,68,61,72,55,32,30.16,30.05,9,2,10,0.00
2013-7-18,100,90,82,73,69,60,65,51,27,30.06,29.93,9,3,12,0.00
2013-7-19,99,91,83,74,72,68,72,55,38,29.95,29.78,13,4,19,0.00
2013-7-20,94,86,81,74,68,-100,68,57,43,29.81,29.71,11,4,17,0.04
2013-7-21,89,82,77,72,64,55,83,58,36,29.93,29.80,10,3,10,0.07
2013-7-22,84,79,76,74,71,66,92,77,65,29.93,29.79,8,2,10,0.13
2013-7-23,90,80,73,74,71,67,93,75,50,29.79,29.54,10,3,11,0.43
2013-7-24,84,78,70,68,62,52,77,59,46,29.90,29.59,12,4,13,0.01
2013-7-25,70,66,64,58,53,47,72,62,52,30.02,29.90,12,4,15,0.00
2013-7-26,84,74,66,64,58,54,75,59,37,30.02,29.97,8,3,10,0.00
2013-7-27,83,75,67,65,63,57,86,66,41,30.03,29.93,14,4,16,0.01
2013-7-28,78,74,70,71,68,64,92,81,68,29.96,29.89,11,3,16,0.55
2013-7-29,86,77,69,70,62,46,93,64,27,30.08,29.92,10,2,12,0.55
2013-7-30,83,74,63,57,54,52,75,52,38,30.14,30.07,8,3,10,0.00
2013-7-31,84,75,64,61,57,53,78,56,34,30.13,30.01,12,3,13,0.00
2013-8-1,75,71,68,69,65,62,93,80,63,30.01,29.80,10,2,11,0.87
2013-8-2,86,76,66,69,62,55,94,65,37,29.88,29.76,10,3,16,0.11
2013-8-3,79,73,70,66,62,57,85,68,54,29.88,29.81,10,3,12,0.04
2013-8-4,82,74,65,62,55,48,84,54,34,29.94,29.83,12,4,16,0.01
2013-8-5,80,71,62,51,47,41,68,44,28,30.03,29.93,10,3,18,0.00
2013-8-6,83,72,61,60,54,48,77,54,31,30.09,30.00,12,3,16,0.00
2013-8-7,80,74,70,68,63,60,81,70,59,30.11,30.03,10,4,17,0.00
2013-8-8,82,75,70,74,69,66,93,84,69,30.04,29.97,12,3,13,0.38
2013-8-9,87,79,74,74,72,70,92,80,59,29.99,29.78,9,4,17,0.22
2013-8-10,86,78,69,72,61,56,84,59,38,30.03,29.83,11,4,14,0.01
2013-8-11,84,74,64,64,56,49,71,54,35,30.09,30.00,6,2,10,0.00
2013-8-12,82,75,69,69,65,58,88,72,44,30.01,29.90,5,1,9,0.08
2013-8-13,77,73,70,72,66,-100,92,80,66,29.91,29.68,5,2,10,0.25
2013-8-14,76,68,60,65,49,-100,84,54,41,30.00,29.73,16,5,23,0.02
2013-8-15,80,62,57,52,32,-100,74,47,27,30.11,30.03,8,2,11,0.03
2013-8-16,81,69,60,57,48,-100,85,53,30,30.18,30.09,5,2,10,0.03
2013-8-17,84,73,60,57,54,51,80,53,34,30.24,30.18,6,2,9,0.03
2013-8-18,77,71,67,62,53,-100,72,57,38,30.24,30.11,7,1,8,0.03
2013-8-19,80,68,65,64,45,-100,85,64,48,30.10,30.01,6,2,10,0.00
2013-8-20,84,71,65,65,64,62,90,80,52,30.09,30.02,3,0,7,0.00
2013-8-21,84,82,78,62,60,58,58,47,42,30.05,30.03,2,1,6,0.00
2013-8-22,79,75,72,71,69,63,90,82,58,30.04,29.85,8,2,12,0.32
2013-8-23,83,76,70,70,59,49,90,59,32,30.07,29.84,12,3,14,0.01
2013-8-24,80,71,63,58,52,47,69,53,33,30.31,30.07,8,3,12,0.00
2013-8-25,84,72,60,58,51,-100,88,54,27,30.36,30.21,8,2,12,0.00
2013-8-26,83,75,68,69,59,54,81,58,48,30.21,29.90,14,3,14,0.03
2013-8-27,88,77,73,69,66,63,83,71,45,29.90,29.80,11,4,15,0.03
2013-8-28,75,74,73,73,71,70,92,90,88,29.87,29.83,3,1,6,0.63
2013-8-29,80,74,71,70,67,63,93,79,61,30.01,29.86,8,2,10,0.03
2013-8-30,86,76,69,69,66,64,83,72,49,30.01,29.85,10,3,12,0.00
2013-8-31,88,80,72,71,69,67,86,72,55,29.86,29.77,10,3,12,0.00
2013-9-1,84,78,75,73,68,-100,88,75,65,29.84,29.78,5,2,10,0.12
2013-9-2,83,77,75,74,72,69,92,85,69,29.80,29.70,4,1,8,0.45
2013-9-3,83,76,70,71,63,54,92,68,42,29.87,29.69,9,3,14,0.02
2013-9-4,83,74,65,58,55,51,75,54,37,29.98,29.86,10,4,13,0.01
2013-9-5,81,71,64,59,51,39,76,51,27,30.12,29.91,11,4,19,0.00
2013-9-6,74,64,55,48,42,35,61,45,27,30.24,30.12,10,2,11,0.00
2013-9-7,80,69,56,51,46,41,76,47,27,30.12,29.88,8,2,12,0.00
2013-9-8,83,72,64,62,50,-100,69,50,30,30.05,29.80,14,5,18,0.00
2013-9-9,73,65,56,59,48,42,72,54,36,30.21,30.05,14,3,14,0.00
2013-9-10,88,77,68,72,66,58,82,70,55,30.13,30.03,10,4,14,0.00
2013-9-11,96,86,76,73,72,70,86,64,44,30.09,29.96,10,3,12,0.00
2013-9-12,88,79,71,73,70,68,90,74,57,29.98,29.67,10,3,15,0.30
2013-9-13,78,69,60,67,58,47,91,70,45,29.83,29.62,16,5,21,0.38
2013-9-14,66,59,54,48,45,43,72,60,47,30.10,29.83,11,5,16,0.08
2013-9-15,73,59,49,50,42,-100,80,59,29,30.18,30.06,3,1,9,0.00
2013-9-16,74,65,60,57,52,48,85,64,43,30.21,30.00,11,3,14,0.02
2013-9-17,64,57,48,46,38,34,64,49,36,30.41,30.22,17,3,17,0.02
2013-9-18,55,50,47,45,42,42,84,75,61,30.33,30.30,2,0,3,0.00
2013-9-19,79,64,50,56,48,42,87,62,28,30.18,30.06,4,2,10,0.00
2013-9-20,79,67,55,60,56,52,89,69,44,30.07,29.98,10,3,15,0.00
2013-9-21,75,68,57,67,61,54,91,79,63,29.99,29.65,15,4,18,0.06
2013-9-22,70,63,56,67,49,-100,93,65,39,29.90,29.63,16,5,18,0.60
2013-9-23,67,57,50,43,40,38,68,55,38,30.03,29.90,10,4,14,0.01
2013-9-24,66,54,47,44,42,40,77,64,44,30.03,29.88,4,2,6,0.00
2013-9-25,75,62,49,50,44,40,80,54,31,29.94,29.86,6,1,7,0.00
2013-9-26,70,62,55,56,54,50,86,73,57,30.07,29.91,7,2,12,0.00
2013-9-27,69,62,55,52,50,49,81,66,52,30.24,30.08,5,3,10,0.00
2013-9-28,73,64,55,53,51,46,85,65,39,30.31,30.23,9,2,12,0.00
2013-9-29,73,61,54,57,50,-100,91,71,46,30.23,30.06,5,2,10,0.00
2013-9-30,74,63,53,54,51,48,92,69,41,30.06,29.95,3,1,8,0.00
2013-10-1,73,69,62,58,57,53,74,65,58,29.97,29.91,4,2,8,0.00
2013-10-2,85,73,59,61,58,53,84,60,41,29.99,29.89,9,2,12,0.00
2013-10-3,80,71,59,60,55,43,84,61,28,30.09,29.99,3,1,8,0.00
2013-10-4,87,76,64,66,61,55,78,61,41,30.04,29.94,7,2,11,0.00
2013-10-5,76,68,64,65,63,61,90,82,65,30.07,29.98,6,2,10,0.05
2013-10-6,70,68,66,66,64,62,92,89,86,30.07,30.01,5,2,10,0.05
2013-10-7,78,68,60,70,64,50,93,87,69,30.01,29.73,10,2,25,0.35
2013-10-8,68,60,53,50,44,38,80,57,34,30.30,29.95,9,2,11,0.01
2013-10-9,62,57,51,49,44,39,73,62,56,30.37,30.27,10,2,11,0.00
2013-10-10,62,57,53,53,50,45,84,75,70,30.27,30.06,9,3,11,0.02
2013-10-11,68,64,60,60,56,52,89,77,70,30.06,29.98,9,3,11,0.01
2013-10-12,72,65,59,56,46,33,73,52,25,30.27,30.04,13,4,16,0.00
2013-10-13,64,59,56,53,47,-100,78,68,60,30.36,30.26,10,3,13,0.00
2013-10-14,66,58,50,51,48,43,87,71,44,30.36,30.22,4,1,10,0.00
2013-10-15,72,59,50,53,49,46,92,71,44,30.25,30.10,6,1,9,0.00
2013-10-16,68,61,54,58,54,48,88,78,65,30.10,29.92,4,1,8,0.00
2013-10-17,75,66,61,62,60,57,92,81,57,29.90,29.67,8,2,10,0.01
2013-10-18,70,63,56,62,47,40,87,57,35,29.96,29.65,9,3,14,0.01
2013-10-19,64,56,47,54,44,39,83,65,40,29.96,29.72,6,2,12,0.00
2013-10-20,64,56,49,53,35,-100,84,49,28,30.03,29.72,12,3,17,0.00
2013-10-21,68,56,44,44,37,31,76,52,27,30.13,29.97,10,2,12,0.00
2013-10-22,67,57,50,49,45,35,82,65,47,29.97,29.74,6,2,11,0.00
2013-10-23,55,49,45,38,35,32,70,58,43,29.79,29.59,10,2,16,0.00
2013-10-24,55,47,41,34,29,22,72,51,30,29.98,29.73,12,4,16,0.00
2013-10-25,54,49,41,32,29,25,65,46,34,30.21,29.98,10,4,16,0.00
2013-10-26,56,47,36,33,30,25,79,53,31,30.21,29.88,9,3,17,0.00
2013-10-27,59,51,46,32,28,-100,56,42,31,30.09,29.83,10,3,15,0.00
2013-10-28,62,51,39,34,30,-100,71,48,29,30.27,30.09,10,2,12,0.00
2013-10-29,57,49,43,34,31,29,62,50,37,30.38,30.27,4,1,10,0.00
2013-10-30,60,51,43,49,41,31,83,68,56,30.33,30.16,4,0,9,0.00
2013-10-31,65,57,49,60,53,46,90,85,73,30.21,29.80,11,1,11,0.08
2013-11-1,70,66,61,63,57,51,92,76,52,29.78,29.54,12,4,19,0.14
2013-11-2,69,59,53,56,45,37,88,63,37,29.77,29.61,5,1,10,0.01
2013-11-3,54,46,36,42,29,-100,74,54,40,30.41,29.77,16,5,17,0.00
2013-11-4,45,39,33,24,17,12,55,41,26,30.63,30.42,9,2,13,0.00
2013-11-5,54,47,37,42,34,24,76,61,53,30.62,30.46,7,1,9,0.00
2013-11-6,60,53,43,50,44,40,89,74,55,30.47,30.06,5,1,10,0.00
2013-11-7,63,55,43,57,48,30,90,80,55,30.05,29.75,10,3,16,0.14
2013-11-8,50,44,40,32,26,19,69,50,34,30.19,29.91,17,4,19,0.02
2013-11-9,50,44,37,32,24,-100,65,49,32,30.27,29.98,6,2,11,0.00
2013-11-10,60,50,40,36,31,25,74,50,31,30.01,29.79,15,6,24,0.00
2013-11-11,54,48,40,31,27,23,55,43,35,30.18,29.93,7,3,15,0.00
2013-11-12,51,38,31,33,23,14,85,55,39,30.27,29.91,17,6,21,0.04
2013-11-13,40,34,28,17,13,7,60,44,26,30.34,30.25,11,5,15,0.01
2013-11-14,53,41,32,19,16,11,57,38,19,30.24,30.12,7,2,17,0.00
2013-11-15,57,47,36,27,23,17,60,39,24,30.21,30.13,6,2,9,0.00
2013-11-16,60,50,46,47,38,-100,91,67,39,30.30,30.20,5,1,10,0.03
2013-11-17,60,54,46,58,51,44,94,90,83,30.25,29.80,3,0,6,0.01
2013-11-18,66,60,52,62,38,23,95,50,26,29.78,29.58,15,4,18,0.26
2013-11-19,50,44,36,28,23,20,52,43,37,30.31,29.76,17,7,22,0.01
2013-11-20,43,37,32,21,14,6,59,41,21,30.58,30.31,10,2,15,0.00
2013-11-21,51,42,31,42,29,17,73,60,47,30.59,30.38,4,2,9,0.00
2013-11-22,57,53,49,49,45,40,89,76,69,30.37,29.89,6,2,10,0.03
2013-11-23,54,42,32,48,21,-100,80,47,28,30.00,29.88,16,8,23,0.02
2013-11-24,32,26,23,8,1,-3,41,34,24,30.33,29.97,18,10,25,0.00
2013-11-25,36,30,22,12,8,4,50,41,33,30.45,30.30,7,3,12,0.00
2013-11-26,44,36,33,42,23,12,94,61,39,30.30,29.81,5,2,9,0.50
2013-11-27,61,46,36,60,42,21,95,85,55,29.77,29.35,15,7,20,2.12
2013-11-28,36,32,30,22,11,5,56,41,28,30.44,29.70,19,7,23,0.01
2013-11-29,40,34,29,18,16,11,58,48,40,30.71,30.44,10,2,12,0.00
2013-11-30,37,31,24,26,15,-100,66,54,41,30.73,30.37,6,2,8,0.00
2013-12-1,49,42,34,32,28,25,75,59,44,30.37,29.99,4,1,9,0.00
2013-12-2,48,43,40,36,32,27,83,64,55,29.99,29.85,3,0,4,0.00
2013-12-3,54,44,36,37,34,31,90,71,47,29.97,29.85,4,1,6,0.00
2013-12-4,50,44,38,42,36,33,82,74,58,30.11,29.97,4,1,5,0.00
2013-12-5,57,52,47,54,49,41,94,90,76,30.09,29.92,3,0,5,0.04
2013-12-6,55,47,38,54,45,34,95,90,86,30.11,29.85,10,3,12,0.96
2013-12-7,41,36,32,34,25,-100,91,68,47,30.49,30.07,17,4,19,0.83
2013-12-8,33,30,28,28,18,13,91,62,50,30.57,30.36,8,3,11,0.01
2013-12-9,38,34,30,36,32,28,94,92,87,30.35,29.93,9,2,10,0.44
2013-12-10,35,33,29,32,29,17,91,84,60,30.09,29.85,6,2,9,0.01
2013-12-11,33,29,25,17,15,12,62,55,42,30.29,30.11,10,3,15,0.01
2013-12-12,28,25,22,15,6,2,60,45,33,30.33,30.16,11,4,17,0.00
2013-12-13,35,29,21,16,11,4,54,46,39,30.30,30.10,12,2,17,0.00
2013-12-14,32,24,20,26,17,-100,93,76,52,30.47,29.83,8,3,13,0.00
2013-12-15,39,34,30,32,28,20,96,79,58,29.82,29.48,14,4,19,0.00
2013-12-16,32,28,23,22,11,6,65,49,37,30.21,29.81,15,5,16,0.00
2013-12-17,29,25,22,26,18,8,88,76,53,30.21,29.91,8,2,10,0.00
2013-12-18,37,30,21,23,20,16,81,66,49,30.13,29.91,10,3,14,0.00
2013-12-19,44,35,27,30,24,18,74,62,47,30.15,30.00,5,2,10,0.00
2013-12-20,50,43,34,35,31,29,84,64,48,30.08,29.93,6,1,9,0.00
2013-12-21,61,51,44,53,43,-100,91,77,64,29.97,29.87,6,2,10,0.00
2013-12-22,70,65,56,62,58,52,89,77,67,29.94,29.78,16,5,19,0.00
2013-12-23,61,55,42,58,51,30,95,87,63,30.11,29.87,10,2,20,0.29
2013-12-24,42,36,27,30,20,9,65,53,39,30.30,30.07,12,5,23,0.01
2013-12-25,29,25,19,15,6,3,56,44,36,30.50,30.31,13,4,21,0.00
2013-12-26,36,32,29,25,20,14,66,61,54,30.39,30.13,5,2,13,0.00
2013-12-27,41,35,30,23,20,15,66,53,39,30.32,30.23,9,2,11,0.00
2013-12-28,55,42,31,27,22,-100,67,48,30,30.26,30.04,8,3,13,0.00
2013-12-29,46,42,41,40,33,25,94,73,44,30.04,29.40,13,3,17,1.30
2013-12-30,44,36,23,37,26,8,88,68,47,30.17,29.66,11,4,17,0.01
2013-12-31,32,26,21,22,10,5,70,51,39,30.25,30.04,8,3,15,0.00
2014-1-1,33,29,24,19,14,5,58,52,41,30.38,30.24,10,2,10,0.00
2014-1-2,32,25,15,22,18,11,86,76,57,30.23,29.66,10,5,17,0.00